Time;durP1;ratioP1;P1;durP2;ratioP2;P2;SDS_P1;SDS_P2;PMS_P1;PMS_P2;Temp;Humidity;BMP_temperature;BMP_pressure;BME280_temperature;BME280_humidity;BME280_pressure;Samples;Min_cycle;Max_cycle;Signal;HPM_P1;HPM_P2
2024/01/07 00:02:58;;;;;;;9.40;4.55;;;;;;;0.27;100.00;101523.06;6296582;28;20364;-78
2024/01/07 00:05:59;;;;;;;8.05;3.90;;;;;;;0.34;100.00;101521.38;6302138;28;20044;-78
2024/01/07 00:09:02;;;;;;;10.38;4.65;;;;;;;0.36;100.00;101523.06;6302363;28;20045;-78
2024/01/07 00:12:03;;;;;;;9.32;5.20;;;;;;;0.35;100.00;101528.25;6302625;28;20040;-78
2024/01/07 00:15:05;;;;;;;16.65;5.85;;;;;;;0.38;100.00;101530.84;6301901;28;20341;-78
2024/01/07 00:18:07;;;;;;;9.60;4.00;;;;;;;0.40;100.00;101535.16;6301976;28;20368;-76
2024/01/07 00:21:08;;;;;;;8.13;4.68;;;;;;;0.38;100.00;101549.81;6302330;28;20421;-77
2024/01/07 00:24:11;;;;;;;11.52;4.55;;;;;;;0.37;100.00;101542.91;6290917;28;20044;-76
2024/01/07 00:27:12;;;;;;;7.65;4.63;;;;;;;0.29;100.00;101546.34;6301490;28;20053;-77
2024/01/07 00:30:14;;;;;;;9.45;5.20;;;;;;;0.30;100.00;101548.94;6300979;28;20044;-76
2024/01/07 00:33:15;;;;;;;11.52;5.72;;;;;;;0.31;100.00;101550.66;6301743;28;20057;-77
2024/01/07 00:36:16;;;;;;;16.80;4.95;;;;;;;0.32;100.00;101556.69;6301046;28;20464;-76
2024/01/07 00:39:19;;;;;;;10.13;4.93;;;;;;;0.35;100.00;101564.44;6302098;28;20048;-77
2024/01/07 00:42:20;;;;;;;11.23;5.30;;;;;;;0.32;100.00;101561.84;6301770;28;20044;-77
2024/01/07 00:45:22;;;;;;;15.13;5.85;;;;;;;0.28;100.00;101573.06;6301491;28;20048;-76
2024/01/07 00:48:23;;;;;;;11.23;4.00;;;;;;;0.23;100.00;101575.66;6301168;28;20353;-77
2024/01/07 00:51:25;;;;;;;9.68;4.22;;;;;;;0.22;100.00;101579.06;6301257;28;20056;-77
2024/01/07 00:54:27;;;;;;;8.25;4.32;;;;;;;0.20;100.00;101573.91;6301651;28;20048;-78
2024/01/07 00:57:29;;;;;;;10.50;4.63;;;;;;;0.26;100.00;101583.38;6300904;28;20053;-78
2024/01/07 01:00:30;;;;;;;6.80;3.95;;;;;;;0.23;100.00;101597.19;6301244;28;20048;-78
2024/01/07 01:03:31;;;;;;;9.80;4.40;;;;;;;0.25;100.00;101600.63;6300599;28;20468;-78
2024/01/07 01:06:33;;;;;;;7.57;4.38;;;;;;;0.22;100.00;101591.97;6300657;28;20048;-77
2024/01/07 01:09:35;;;;;;;11.48;5.45;;;;;;;0.21;100.00;101611.81;6287594;28;20053;-78
2024/01/07 01:12:37;;;;;;;10.88;5.47;;;;;;;0.18;100.00;101598.91;6291188;28;20353;-76
2024/01/07 01:15:38;;;;;;;10.57;5.15;;;;;;;0.13;100.00;101607.47;6283677;28;20055;-76
2024/01/07 01:18:39;;;;;;;11.95;4.82;;;;;;;0.12;100.00;101604.03;6294111;28;20045;-78
2024/01/07 01:21:41;;;;;;;12.88;4.65;;;;;;;0.22;100.00;101613.53;6276092;28;20460;-78
2024/01/07 01:24:45;;;;;;;12.88;5.35;;;;;;;0.16;100.00;101616.09;6275929;28;20044;-78
2024/01/07 01:27:47;;;;;;;12.95;5.03;;;;;;;0.17;100.00;101629.88;6285008;28;20060;-78
2024/01/07 01:30:48;;;;;;;8.38;4.68;;;;;;;0.22;100.00;101631.63;6300544;28;20045;-78
2024/01/07 01:33:49;;;;;;;9.90;4.90;;;;;;;0.18;100.00;101635.06;6300452;28;20052;-78
2024/01/07 01:36:51;;;;;;;12.82;4.72;;;;;;;0.13;100.00;101641.06;6300008;28;20048;-78
2024/01/07 01:39:53;;;;;;;11.43;5.57;;;;;;;0.15;100.00;101650.56;6292018;28;20051;-78
2024/01/07 01:42:55;;;;;;;11.02;4.50;;;;;;;0.26;100.00;101653.19;6293818;28;20048;-78
2024/01/07 01:45:57;;;;;;;10.15;4.72;;;;;;;0.29;100.00;101657.50;6300041;28;20078;-78
2024/01/07 01:48:59;;;;;;;9.57;4.90;;;;;;;0.27;100.00;101660.06;6299935;28;20357;-78
2024/01/07 01:52:01;;;;;;;8.55;4.20;;;;;;;0.07;100.00;101661.72;6300322;28;20052;-78
2024/01/07 01:55:04;;;;;;;9.20;4.13;;;;;;;0.09;100.00;101670.31;6299973;28;20048;-78
2024/01/07 01:58:06;;;;;;;6.30;3.92;;;;;;;0.06;100.00;101673.78;6300069;28;20051;-77
2024/01/07 02:01:08;;;;;;;6.28;4.13;;;;;;;0.07;100.00;101669.47;6300240;28;20345;-78
2024/01/07 02:04:10;;;;;;;7.60;3.92;;;;;;;0.08;100.00;101673.78;6297376;28;20355;-78
2024/01/07 02:07:11;;;;;;;7.80;4.03;;;;;;;0.09;100.00;101678.97;6290096;28;20055;-78
2024/01/07 02:10:14;;;;;;;8.07;3.20;;;;;;;0.07;100.00;101683.25;6287414;28;20111;-78
2024/01/07 02:13:15;;;;;;;14.27;4.35;;;;;;;0.02;100.00;101691.84;6299824;28;20337;-78
2024/01/07 02:16:17;;;;;;;11.40;4.45;;;;;;;-0.04;100.00;101683.22;6299400;28;20069;-79
2024/01/07 02:19:21;;;;;;;7.25;3.72;;;;;;;-0.06;100.00;101686.63;6300212;28;20048;-78
2024/01/07 02:22:22;;;;;;;15.02;3.75;;;;;;;-0.07;100.00;101695.25;6298784;28;20048;-78
2024/01/07 02:25:25;;;;;;;5.85;3.08;;;;;;;-0.16;100.00;101690.88;6300260;28;20318;-78
2024/01/07 02:28:26;;;;;;;6.25;2.58;;;;;;;-0.06;100.00;101695.25;6296468;28;20052;-78
2024/01/07 02:31:28;;;;;;;8.07;3.88;;;;;;;-0.07;100.00;101703.00;6296426;28;20047;-78
2024/01/07 02:34:29;;;;;;;6.18;3.70;;;;;;;-0.13;100.00;101697.81;6304592;28;20326;-78
2024/01/07 02:37:30;;;;;;;6.28;3.53;;;;;;;-0.05;100.00;101701.25;6297485;28;20353;-77
2024/01/07 02:40:33;;;;;;;9.57;4.60;;;;;;;0.09;100.00;101699.66;6296216;28;20441;-78
2024/01/07 02:43:34;;;;;;;7.15;3.17;;;;;;;0.02;100.00;101702.19;6304325;28;20048;-76
2024/01/07 02:46:36;;;;;;;10.23;3.60;;;;;;;-0.10;100.00;101715.88;6303982;28;20353;-77
2024/01/07 02:49:37;;;;;;;7.75;3.60;;;;;;;-0.11;100.00;101720.19;6288293;28;20057;-76
2024/01/07 02:52:38;;;;;;;6.40;3.38;;;;;;;-0.08;100.00;101716.78;6303714;28;20045;-73
2024/01/07 02:55:41;;;;;;;7.72;4.32;;;;;;;-0.18;100.00;101714.97;6303827;28;20060;-74
2024/01/07 02:58:42;;;;;;;7.53;3.50;;;;;;;-0.06;100.00;101730.53;6304054;28;20349;-76
2024/01/07 03:01:43;;;;;;;7.70;3.70;;;;;;;-0.05;100.00;101727.97;6295033;28;20041;-73
2024/01/07 03:04:45;;;;;;;6.40;3.47;;;;;;;-0.11;100.00;101727.94;6303631;28;20052;-74
2024/01/07 03:07:46;;;;;;;8.77;3.38;;;;;;;-0.21;100.00;101730.47;6303815;28;20052;-74
2024/01/07 03:10:49;;;;;;;5.10;3.17;;;;;;;-0.16;100.00;101731.34;6303747;28;20365;-74
2024/01/07 03:13:50;;;;;;;13.15;3.95;;;;;;;-0.26;100.00;101740.75;6303741;28;20052;-74
2024/01/07 03:16:51;;;;;;;6.55;3.22;;;;;;;-0.29;100.00;101740.72;6302854;28;20079;-74
2024/01/07 03:19:53;;;;;;;4.78;2.97;;;;;;;-0.30;100.00;101742.44;6295367;28;20127;-75
2024/01/07 03:22:55;;;;;;;6.00;3.20;;;;;;;-0.27;100.00;101752.81;6303378;28;20044;-76
2024/01/07 03:26:00;;;;;;;7.47;3.08;;;;;;;-0.30;100.00;101754.50;6303134;28;20360;-75
2024/01/07 03:29:02;;;;;;;7.10;3.58;;;;;;;-0.30;100.00;101751.91;6303412;28;20049;-75
2024/01/07 03:32:03;;;;;;;9.00;3.53;;;;;;;-0.39;100.00;101755.28;6297021;28;20049;-74
2024/01/07 03:35:05;;;;;;;6.72;3.42;;;;;;;-0.38;100.00;101758.72;6278268;28;20064;-75
2024/01/07 03:38:06;;;;;;;9.07;3.00;;;;;;;-0.38;100.00;101761.31;6277089;28;20052;-74
2024/01/07 03:41:09;;;;;;;5.60;3.20;;;;;;;-0.43;100.00;101773.34;6278329;28;20056;-75
2024/01/07 03:44:11;;;;;;;9.05;3.22;;;;;;;-0.44;100.00;101769.03;6278117;28;20052;-75
2024/01/07 03:47:12;;;;;;;7.82;3.67;;;;;;;-0.35;100.00;101777.72;6276747;28;20357;-74
2024/01/07 03:50:13;;;;;;;6.32;3.00;;;;;;;-0.44;100.00;101772.47;6278194;28;20056;-74
2024/01/07 03:53:15;;;;;;;8.20;3.15;;;;;;;-0.39;100.00;101780.25;6277511;28;20049;-75
2024/01/07 03:56:18;;;;;;;8.00;3.42;;;;;;;-0.36;100.00;101785.44;6277835;28;20159;-74
2024/01/07 03:59:19;;;;;;;6.57;2.45;;;;;;;-0.47;100.00;101793.09;6277442;28;20334;-74
2024/01/07 04:02:21;;;;;;;7.75;2.47;;;;;;;-0.48;100.00;101791.38;6275184;28;20048;-74
2024/01/07 04:05:22;;;;;;;6.35;2.50;;;;;;;-0.45;100.00;101800.88;6290699;28;20052;-73
2024/01/07 04:08:23;;;;;;;3.05;1.88;;;;;;;-0.40;100.00;101807.78;6291670;28;20063;-74
2024/01/07 04:11:26;;;;;;;3.00;2.20;;;;;;;-0.33;100.00;101800.94;6290892;28;20040;-73
2024/01/07 04:14:27;;;;;;;4.20;2.15;;;;;;;-0.39;100.00;101804.34;6286674;28;20441;-73
2024/01/07 04:17:29;;;;;;;6.07;2.60;;;;;;;-0.35;100.00;101802.66;6289850;28;20443;-73
2024/01/07 04:20:30;;;;;;;4.15;2.35;;;;;;;-0.33;100.00;101811.28;6289737;28;20053;-75
2024/01/07 04:23:32;;;;;;;6.03;2.08;;;;;;;-0.30;100.00;101813.91;6293650;28;20064;-73
2024/01/07 04:26:34;;;;;;;3.92;1.90;;;;;;;-0.44;100.00;101820.66;6292507;28;20055;-73
2024/01/07 04:29:36;;;;;;;3.55;2.10;;;;;;;-0.44;100.00;101823.25;6298787;28;20056;-75
2024/01/07 04:32:37;;;;;;;3.25;1.95;;;;;;;-0.42;100.00;101824.97;6292404;28;20044;-75
2024/01/07 04:35:39;;;;;;;1.77;1.45;;;;;;;-0.44;100.00;101831.84;6301677;28;20453;-73
2024/01/07 04:38:40;;;;;;;4.30;2.15;;;;;;;-0.36;100.00;101834.53;6276967;28;20064;-74
2024/01/07 04:41:43;;;;;;;3.22;1.45;;;;;;;-0.34;100.00;101840.53;6288124;28;20051;-75
2024/01/07 04:44:44;;;;;;;2.00;1.40;;;;;;;-0.33;100.00;101839.69;6291024;28;20044;-75
2024/01/07 04:47:45;;;;;;;3.20;1.67;;;;;;;-0.43;100.00;101840.47;6274903;28;20056;-75
2024/01/07 04:50:47;;;;;;;3.05;1.50;;;;;;;-0.43;100.00;101848.22;6289794;28;20052;-75
2024/01/07 04:53:49;;;;;;;4.30;1.98;;;;;;;-0.44;100.00;101849.06;6279679;28;20414;-74
2024/01/07 04:56:51;;;;;;;6.70;2.88;;;;;;;-0.46;100.00;101866.25;6274078;28;20048;-74
2024/01/07 04:59:53;;;;;;;5.72;2.08;;;;;;;-0.49;100.00;101867.09;6274763;28;20361;-74
2024/01/07 05:02:54;;;;;;;3.00;1.83;;;;;;;-0.49;100.00;101871.41;6274581;28;20045;-74
2024/01/07 05:05:55;;;;;;;7.65;1.70;;;;;;;-0.55;100.00;101878.19;6277209;28;20041;-74
2024/01/07 05:08:57;;;;;;;3.60;1.75;;;;;;;-0.55;100.00;101882.50;6278106;28;20041;-75
2024/01/07 05:12:00;;;;;;;3.13;2.05;;;;;;;-0.47;100.00;101891.19;6275741;28;20067;-75
2024/01/07 05:15:01;;;;;;;7.35;2.33;;;;;;;-0.49;100.00;101886.88;6275873;28;20056;-73
2024/01/07 05:18:03;;;;;;;4.63;2.20;;;;;;;-0.52;100.00;101888.56;6276030;28;20056;-75
2024/01/07 05:21:06;;;;;;;4.03;2.15;;;;;;;-0.52;100.00;101893.72;6276066;28;20461;-74
2024/01/07 05:24:08;;;;;;;2.70;1.63;;;;;;;-0.47;100.00;101905.81;6275935;28;20438;-74
2024/01/07 05:27:10;;;;;;;2.72;1.75;;;;;;;-0.44;100.00;101898.13;6275362;28;20049;-75
2024/01/07 05:30:12;;;;;;;7.80;2.47;;;;;;;-0.40;100.00;101911.09;6275971;28;20076;-72
2024/01/07 05:33:13;;;;;;;3.63;1.58;;;;;;;-0.53;100.00;101904.06;6275472;28;20056;-73
2024/01/07 05:36:15;;;;;;;2.90;1.65;;;;;;;-0.54;100.00;101910.06;6275155;28;20064;-73
2024/01/07 05:39:16;;;;;;;8.20;1.45;;;;;;;-0.63;100.00;101912.56;6275839;28;20048;-75
2024/01/07 05:42:19;;;;;;;3.80;1.63;;;;;;;-0.52;100.00;101916.97;6275454;28;20048;-75
2024/01/07 05:45:21;;;;;;;2.17;1.23;;;;;;;-0.48;100.00;101927.34;6275058;28;20131;-72
2024/01/07 05:48:23;;;;;;;4.63;1.63;;;;;;;-0.45;100.00;101936.00;6275522;28;20080;-73
2024/01/07 05:51:24;;;;;;;2.30;1.52;;;;;;;-0.64;100.00;101934.03;6275536;28;20049;-73
2024/01/07 05:54:25;;;;;;;3.47;2.05;;;;;;;-0.63;100.00;101939.22;6275204;28;20480;-73
2024/01/07 05:57:29;;;;;;;3.95;2.00;;;;;;;-0.63;100.00;101944.41;6288633;28;20052;-73
2024/01/07 06:00:30;;;;;;;8.27;2.58;;;;;;;-0.57;100.00;101949.63;6294285;28;20059;-73
2024/01/07 06:03:32;;;;;;;5.82;1.63;;;;;;;-0.66;100.00;101946.94;6286958;28;20044;-73
2024/01/07 06:06:33;;;;;;;3.58;1.50;;;;;;;-0.68;100.00;101958.06;6282360;28;20361;-72
2024/01/07 06:09:35;;;;;;;6.10;1.70;;;;;;;-0.76;100.00;101963.16;6290340;28;20052;-74
2024/01/07 06:12:37;;;;;;;7.32;1.48;;;;;;;-0.85;100.00;101966.47;6291445;28;20052;-73
2024/01/07 06:15:39;;;;;;;3.00;1.65;;;;;;;-0.92;100.00;101967.22;6299729;28;20049;-75
2024/01/07 06:18:40;;;;;;;3.60;1.90;;;;;;;-1.09;100.00;101986.75;6286862;28;20075;-73
2024/01/07 06:21:41;;;;;;;2.22;1.30;;;;;;;-1.06;100.00;101989.41;6275204;28;20041;-73
2024/01/07 06:24:43;;;;;;;4.35;1.52;;;;;;;-1.05;100.00;101999.72;6278920;28;20057;-74
2024/01/07 06:27:45;;;;;;;1.85;1.25;;;;;;;-1.08;100.00;101998.84;6280275;28;20048;-74
2024/01/07 06:30:47;;;;;;;2.83;1.92;;;;;;;-1.03;100.00;101992.91;6276671;28;20052;-75
2024/01/07 06:33:48;;;;;;;5.25;1.40;;;;;;;-1.10;100.00;102008.25;6280169;28;20041;-72
2024/01/07 06:36:49;;;;;;;7.38;1.88;;;;;;;-0.98;100.00;102018.75;6279718;28;20052;-74
2024/01/07 06:39:51;;;;;;;4.25;2.20;;;;;;;-1.03;100.00;102016.09;6277044;28;20056;-72
2024/01/07 06:42:53;;;;;;;2.72;1.45;;;;;;;-1.09;100.00;102021.19;6284264;28;20045;-74
2024/01/07 06:45:55;;;;;;;13.75;6.13;;;;;;;-1.02;100.00;102023.00;6227133;28;20400;-74
2024/01/07 06:48:56;;;;;;;1.40;1.10;;;;;;;-1.05;100.00;102025.53;6216918;28;20060;-72
2024/01/07 06:51:57;;;;;;;2.38;1.75;;;;;;;-1.05;100.00;102045.28;6220842;28;20324;-74
2024/01/07 06:54:59;;;;;;;2.83;1.88;;;;;;;-1.02;100.00;102040.19;6219429;28;20049;-72
2024/01/07 06:58:02;;;;;;;3.47;1.67;;;;;;;-1.01;100.00;102047.09;6231653;28;20058;-72
2024/01/07 07:01:04;;;;;;;3.15;2.08;;;;;;;-1.02;100.00;102055.66;6230036;28;20050;-72
2024/01/07 07:04:05;;;;;;;2.47;1.55;;;;;;;-1.08;100.00;102065.91;6238025;28;20438;-72
2024/01/07 07:07:06;;;;;;;2.47;1.48;;;;;;;-1.09;100.00;102062.47;6228247;28;20053;-73
2024/01/07 07:10:08;;;;;;;3.35;1.73;;;;;;;-1.08;100.00;102063.31;6236329;28;20069;-73
2024/01/07 07:13:13;;;;;;;3.72;1.85;;;;;;;-1.09;100.00;102075.38;6225776;28;20053;-72
2024/01/07 07:16:14;;;;;;;1.75;1.45;;;;;;;-1.06;100.00;102075.38;6241996;28;20046;-72
2024/01/07 07:19:16;;;;;;;4.55;1.50;;;;;;;-0.99;100.00;102088.41;6233412;28;20354;-74
2024/01/07 07:22:17;;;;;;;3.42;2.03;;;;;;;-0.97;100.00;102086.69;6234502;28;20049;-72
2024/01/07 07:25:19;;;;;;;4.57;2.00;;;;;;;-0.96;100.00;102103.91;6239343;28;20056;-72
2024/01/07 07:28:22;;;;;;;1.60;1.27;;;;;;;-0.98;100.00;102108.19;6233624;28;20050;-72
2024/01/07 07:31:23;;;;;;;3.53;1.67;;;;;;;-0.99;100.00;102117.66;6233260;28;20515;-71
2024/01/07 07:34:24;;;;;;;3.45;1.33;;;;;;;-0.92;100.00;102124.63;6239182;28;20434;-72
2024/01/07 07:37:26;;;;;;;2.45;1.17;;;;;;;-1.03;100.00;102123.59;6230273;28;20065;-72
2024/01/07 07:40:27;;;;;;;2.58;1.55;;;;;;;-0.97;100.00;102127.97;6242730;28;20045;-72
2024/01/07 07:43:30;;;;;;;4.47;1.90;;;;;;;-0.97;100.00;102121.09;6238186;28;20362;-72
2024/01/07 07:46:31;;;;;;;3.90;1.88;;;;;;;-1.12;100.00;102136.34;6230166;28;20121;-72
2024/01/07 07:49:33;;;;;;;2.35;1.55;;;;;;;-1.00;100.00;102141.69;6235439;28;20050;-72
2024/01/07 07:52:34;;;;;;;8.82;2.05;;;;;;;-0.93;100.00;102142.66;6239499;28;20056;-72
2024/01/07 07:55:35;;;;;;;5.35;1.98;;;;;;;-0.91;100.00;102147.03;6228090;28;20050;-72
2024/01/07 07:58:38;;;;;;;2.05;1.35;;;;;;;-0.91;100.00;102154.78;6243999;28;20533;-72
2024/01/07 08:01:40;;;;;;;2.92;1.73;;;;;;;-0.94;100.00;102153.84;6251069;28;20061;-74
2024/01/07 08:04:41;;;;;;;1.88;1.50;;;;;;;-0.82;100.00;102156.59;6252050;28;20152;-72
2024/01/07 08:07:43;;;;;;;2.55;1.50;;;;;;;-0.76;100.00;102167.03;6251780;28;20176;-71
2024/01/07 08:10:44;;;;;;;1.88;1.30;;;;;;;-0.78;100.00;102171.28;6252158;28;20053;-72
2024/01/07 08:13:47;;;;;;;9.70;1.63;;;;;;;-0.79;100.00;102166.97;6252638;28;20053;-73
2024/01/07 08:16:48;;;;;;;3.67;1.67;;;;;;;-0.70;100.00;102171.44;6252564;28;20060;-73
2024/01/07 08:19:50;;;;;;;6.18;2.35;;;;;;;-0.74;100.00;102177.38;6252706;28;20056;-71
2024/01/07 08:22:51;;;;;;;6.68;1.50;;;;;;;-0.83;100.00;102172.94;6251509;28;20053;-73
2024/01/07 08:25:53;;;;;;;2.25;1.45;;;;;;;-0.77;100.00;102173.06;6252151;28;20370;-73
2024/01/07 08:28:55;;;;;;;3.17;1.83;;;;;;;-0.70;100.00;102172.28;6252808;28;20050;-73
2024/01/07 08:31:56;;;;;;;4.32;1.90;;;;;;;-0.63;100.00;102175.84;6252178;28;20049;-73
2024/01/07 08:34:58;;;;;;;3.15;1.65;;;;;;;-0.60;100.00;102187.06;6251956;28;20346;-73
2024/01/07 08:38:00;;;;;;;2.45;1.88;;;;;;;-0.53;100.00;102185.47;6251871;28;20432;-73
2024/01/07 08:41:01;;;;;;;5.13;2.50;;;;;;;-0.49;100.00;102195.00;6252324;28;20053;-73
2024/01/07 08:44:04;;;;;;;1.80;1.60;;;;;;;-0.58;100.00;102198.31;6252265;28;20043;-73
2024/01/07 08:47:05;;;;;;;4.20;1.88;;;;;;;-0.56;100.00;102194.03;6251585;28;20046;-73
2024/01/07 08:50:07;;;;;;;1.67;1.20;;;;;;;-0.54;100.00;102214.72;6252062;28;20060;-73
2024/01/07 08:53:09;;;;;;;2.80;1.52;;;;;;;-0.42;100.00;102204.56;6251708;28;20045;-72
2024/01/07 08:56:10;;;;;;;8.60;1.50;;;;;;;-0.26;100.00;102211.72;6251690;28;20048;-73
2024/01/07 08:59:13;;;;;;;1.58;1.35;;;;;;;-0.29;100.00;102213.38;6251732;28;20045;-73
2024/01/07 09:02:14;;;;;;;5.72;1.80;;;;;;;-0.28;100.00;102217.69;6251608;28;20050;-72
2024/01/07 09:05:16;;;;;;;3.90;1.80;;;;;;;-0.35;100.00;102223.63;6251316;28;20049;-73
2024/01/07 09:08:17;;;;;;;6.60;1.80;;;;;;;-0.36;100.00;102222.75;6251407;28;20441;-71
2024/01/07 09:11:19;;;;;;;5.10;2.05;;;;;;;-0.31;100.00;102228.84;6251522;28;20072;-71
2024/01/07 09:14:25;;;;;;;3.22;1.35;;;;;;;-0.24;100.00;102239.28;6251204;28;20060;-72
2024/01/07 09:17:26;;;;;;;2.67;1.52;;;;;;;-0.18;100.00;102236.78;6250964;28;20358;-72
2024/01/07 09:20:27;;;;;;;2.45;1.23;;;;;;;-0.15;100.00;102244.56;6251260;28;20485;-72
2024/01/07 09:23:29;;;;;;;2.60;1.60;;;;;;;-0.12;100.00;102244.63;6251150;28;20053;-72
2024/01/07 09:26:30;;;;;;;3.80;1.70;;;;;;;-0.11;100.00;102241.19;6250715;28;20346;-72
2024/01/07 09:29:33;;;;;;;2.20;1.40;;;;;;;-0.10;100.00;102248.97;6251326;28;20056;-72
2024/01/07 09:32:34;;;;;;;2.08;1.30;;;;;;;-0.07;100.00;102254.19;6250835;28;20056;-72
2024/01/07 09:35:35;;;;;;;14.23;6.38;;;;;;;-0.09;100.00;102257.56;6250191;28;20072;-72
2024/01/07 09:38:37;;;;;;;11.35;5.75;;;;;;;-0.10;100.00;102261.88;6250594;28;20354;-72
2024/01/07 09:41:39;;;;;;;40.55;15.30;;;;;;;-0.15;100.00;102257.50;6250696;28;20353;-72
2024/01/07 09:44:42;;;;;;;57.47;20.02;;;;;;;-0.17;100.00;102265.22;6250645;28;20049;-73
2024/01/07 09:47:45;;;;;;;39.53;13.65;;;;;;;-0.07;100.00;102261.94;6250433;28;20380;-72
2024/01/07 09:50:47;;;;;;;11.93;3.97;;;;;;;-0.07;100.00;102267.09;6250655;28;20053;-71
2024/01/07 09:53:49;;;;;;;10.52;4.80;;;;;;;-0.11;100.00;102267.91;6250573;28;20353;-74
2024/01/07 09:56:56;;;;;;;33.63;11.82;;;;;;;0.03;100.00;102273.28;6250427;28;20050;-73
2024/01/07 10:00:00;;;;;;;76.82;19.10;;;;;;;0.14;100.00;102271.72;6250537;28;20132;-74
2024/01/07 10:03:02;;;;;;;45.80;14.60;;;;;;;0.18;100.00;102276.09;6250422;28;20054;-71
2024/01/07 10:06:04;;;;;;;13.50;6.30;;;;;;;0.17;100.00;102274.34;6249728;28;20092;-71
2024/01/07 10:09:07;;;;;;;8.82;2.50;;;;;;;0.10;100.00;102272.53;6250554;28;20468;-73
2024/01/07 10:12:09;;;;;;;11.57;5.00;;;;;;;0.00;100.00;102262.91;6250248;28;20049;-74
2024/01/07 10:15:11;;;;;;;9.02;4.38;;;;;;;0.06;100.00;102269.88;6250079;28;20056;-72
2024/01/07 10:18:14;;;;;;;6.93;2.95;;;;;;;0.15;100.00;102267.41;6250532;28;20057;-72
2024/01/07 10:21:16;;;;;;;5.90;2.80;;;;;;;0.12;100.00;102265.66;6250568;28;20056;-71
2024/01/07 10:24:17;;;;;;;6.03;2.80;;;;;;;0.13;100.00;102258.75;6249944;28;20053;-72
2024/01/07 10:27:18;;;;;;;3.22;1.92;;;;;;;0.10;100.00;102264.78;6250082;28;20056;-72
2024/01/07 10:30:21;;;;;;;3.78;1.83;;;;;;;0.12;100.00;102265.66;6250515;28;20045;-74
2024/01/07 10:33:23;;;;;;;3.00;1.85;;;;;;;0.18;100.00;102265.75;6249878;28;20045;-71
2024/01/07 10:36:25;;;;;;;3.20;1.77;;;;;;;0.29;100.00;102262.44;6249626;28;20053;-74
2024/01/07 10:39:27;;;;;;;3.92;1.85;;;;;;;0.28;100.00;102264.16;6249991;28;20346;-71
2024/01/07 10:42:30;;;;;;;4.50;1.67;;;;;;;0.31;100.00;102263.31;6250064;28;20057;-71
2024/01/07 10:45:33;;;;;;;4.40;1.95;;;;;;;0.39;100.00;102265.16;6249487;28;20060;-72
2024/01/07 10:48:38;;;;;;;3.83;1.88;;;;;;;0.40;100.00;102264.31;6254118;28;20343;-71
2024/01/07 10:51:41;;;;;;;3.85;2.05;;;;;;;0.50;100.00;102265.31;6255034;28;20053;-74
2024/01/07 10:54:45;;;;;;;4.60;2.25;;;;;;;0.43;100.00;102264.34;6255059;28;20056;-71
2024/01/07 10:57:49;;;;;;;63.53;18.25;;;;;;;0.41;100.00;102265.16;6254259;28;20311;-73
2024/01/07 11:00:52;;;;;;;42.55;12.63;;;;;;;0.47;100.00;102266.13;6254816;28;20135;-72
2024/01/07 11:04:02;;;;;;;56.92;15.88;;;;;;;0.51;100.00;102272.22;6254199;28;20046;-73
2024/01/07 11:07:10;;;;;;;38.90;11.32;;;;;;;0.54;100.00;102266.19;6253821;28;20349;-71
2024/01/07 11:10:17;;;;;;;16.48;7.43;;;;;;;0.50;100.00;102270.47;6254354;28;20362;-72
2024/01/07 11:13:33;;;;;;;18.85;9.02;;;;;;;0.45;100.00;102270.41;6254540;28;20426;-71
2024/01/07 11:16:43;;;;;;;12.13;6.05;;;;;;;0.55;100.00;102271.41;6253814;28;20053;-71
2024/01/07 11:19:51;;;;;;;12.30;4.95;;;;;;;0.47;100.00;102278.19;6254120;28;20339;-71
2024/01/07 11:22:52;;;;;;;10.40;3.78;;;;;;;0.45;100.00;102275.56;6253906;28;20192;-71
2024/01/07 11:25:54;;;;;;;14.82;3.58;;;;;;;0.58;100.00;102280.91;6253818;28;20453;-71
2024/01/07 11:28:57;;;;;;;6.03;2.40;;;;;;;0.56;100.00;102277.44;6253997;28;20049;-71
2024/01/07 11:31:59;;;;;;;6.18;2.72;;;;;;;0.66;100.00;102276.69;6253903;28;20053;-71
2024/01/07 11:35:02;;;;;;;14.60;5.95;;;;;;;0.42;100.00;102274.69;6253517;28;20048;-71
2024/01/07 11:38:05;;;;;;;8.65;3.65;;;;;;;0.49;100.00;102279.06;6253747;28;20049;-71
2024/01/07 11:41:07;;;;;;;3.88;2.47;;;;;;;0.52;100.00;102278.25;6253921;28;20052;-71
2024/01/07 11:44:10;;;;;;;7.90;2.63;;;;;;;0.52;100.00;102281.69;6253338;28;20100;-71
2024/01/07 11:47:13;;;;;;;2.33;1.58;;;;;;;0.62;100.00;102275.78;6253348;28;20434;-73
2024/01/07 11:50:15;;;;;;;3.90;1.90;;;;;;;0.51;100.00;102282.56;6253380;28;20052;-71
2024/01/07 11:53:16;;;;;;;2.72;1.48;;;;;;;0.52;100.00;102278.25;6253561;28;20060;-71
2024/01/07 11:56:18;;;;;;;3.70;1.75;;;;;;;0.45;100.00;102279.88;6252841;28;20342;-71
2024/01/07 11:59:19;;;;;;;5.18;2.10;;;;;;;0.44;100.00;102267.81;6253031;28;20049;-71
2024/01/07 12:02:22;;;;;;;3.47;2.08;;;;;;;0.37;100.00;102273.75;6252973;28;20460;-71
2024/01/07 12:05:23;;;;;;;10.75;4.32;;;;;;;0.36;100.00;102277.16;6252877;28;20053;-71
2024/01/07 12:08:25;;;;;;;18.25;7.40;;;;;;;0.40;100.00;102271.19;6252900;28;20049;-71
2024/01/07 12:11:26;;;;;;;9.85;3.95;;;;;;;0.36;100.00;102274.59;6253302;28;20045;-71
2024/01/07 12:14:27;;;;;;;29.95;10.07;;;;;;;0.28;100.00;102276.22;6252798;28;20045;-72
2024/01/07 12:17:30;;;;;;;16.00;4.93;;;;;;;0.30;100.00;102277.97;6252290;28;20060;-71
2024/01/07 12:20:31;;;;;;;6.78;2.90;;;;;;;0.40;100.00;102285.00;6252857;28;20056;-71
2024/01/07 12:23:35;;;;;;;38.65;12.15;;;;;;;0.32;100.00;102284.03;6252446;28;20398;-73
2024/01/07 12:26:37;;;;;;;24.42;7.25;;;;;;;0.28;100.00;102282.25;6252431;28;20052;-72
2024/01/07 12:29:38;;;;;;;7.72;3.80;;;;;;;0.40;100.00;102284.13;6252530;28;20194;-73
2024/01/07 12:32:41;;;;;;;26.20;9.00;;;;;;;0.39;100.00;102297.91;6252190;28;20365;-73
2024/01/07 12:35:42;;;;;;;13.05;4.65;;;;;;;0.27;100.00;102293.41;6251796;28;20049;-72
2024/01/07 12:38:44;;;;;;;20.65;7.43;;;;;;;0.24;100.00;102298.56;6252537;28;20046;-72
2024/01/07 12:41:45;;;;;;;31.60;8.55;;;;;;;0.24;100.00;102302.03;6252411;28;20049;-72
2024/01/07 12:44:48;;;;;;;9.93;3.95;;;;;;;0.28;100.00;102305.53;6252047;28;20045;-72
2024/01/07 12:47:51;;;;;;;16.25;5.72;;;;;;;0.29;100.00;102311.56;6252225;28;20425;-72
2024/01/07 12:50:52;;;;;;;25.92;9.27;;;;;;;0.31;100.00;102307.28;6252018;28;20057;-72
2024/01/07 12:53:56;;;;;;;15.38;5.90;;;;;;;0.32;100.00;102311.59;6251969;28;20056;-72
2024/01/07 12:56:57;;;;;;;13.65;5.45;;;;;;;0.28;100.00;102309.84;6251495;28;20049;-72
2024/01/07 12:59:59;;;;;;;13.85;5.50;;;;;;;0.22;100.00;102306.28;6252021;28;20049;-72
2024/01/07 13:03:01;;;;;;;22.10;6.30;;;;;;;0.28;100.00;102321.03;6251545;28;20049;-73
2024/01/07 13:06:03;;;;;;;22.23;6.65;;;;;;;0.25;100.00;102318.41;6250980;28;20346;-71
2024/01/07 13:09:04;;;;;;;17.08;6.60;;;;;;;0.17;100.00;102320.88;6250858;28;20072;-72
2024/01/07 13:12:06;;;;;;;24.15;6.05;;;;;;;0.14;100.00;102314.81;6251614;28;20049;-72
2024/01/07 13:15:08;;;;;;;23.48;7.00;;;;;;;0.21;100.00;102320.06;6251145;28;20049;-72
2024/01/07 13:18:11;;;;;;;50.03;12.18;;;;;;;0.11;100.00;102325.94;6251297;28;20057;-72
2024/01/07 13:21:13;;;;;;;36.05;10.88;;;;;;;0.07;100.00;102324.16;6251582;28;20465;-72
2024/01/07 13:24:14;;;;;;;14.10;5.00;;;;;;;0.05;100.00;102322.41;6251051;28;20056;-72
2024/01/07 13:27:17;;;;;;;4.45;2.03;;;;;;;-0.02;100.00;102321.44;6250976;28;20053;-72
2024/01/07 13:30:19;;;;;;;4.30;2.53;;;;;;;-0.04;100.00;102331.75;6251077;28;20167;-72
2024/01/07 13:33:22;;;;;;;3.35;2.15;;;;;;;-0.02;100.00;102329.19;6251104;28;20430;-74
2024/01/07 13:36:23;;;;;;;3.88;1.88;;;;;;;0.03;100.00;102335.28;6250431;28;20049;-72
2024/01/07 13:39:24;;;;;;;6.20;2.28;;;;;;;-0.08;100.00;102334.28;6251129;28;20057;-71
2024/01/07 13:42:26;;;;;;;6.47;2.83;;;;;;;-0.11;100.00;102337.66;6250745;28;20050;-71
2024/01/07 13:45:27;;;;;;;6.38;2.50;;;;;;;-0.02;100.00;102331.78;6250468;28;20045;-71
2024/01/07 13:48:30;;;;;;;3.40;2.00;;;;;;;-0.03;100.00;102342.97;6250680;28;20084;-72
2024/01/07 13:51:31;;;;;;;4.22;1.85;;;;;;;-0.10;100.00;102349.72;6240330;28;20050;-72
2024/01/07 13:54:33;;;;;;;6.45;2.80;;;;;;;-0.03;100.00;102348.13;6227503;28;20054;-72
2024/01/07 13:57:34;;;;;;;23.35;5.63;;;;;;;-0.05;100.00;102353.25;6232718;28;20046;-71